Time,TemperatureF,DewpointF,PressureIn,WindDirection,WindDirectionDegrees,WindSpeedMPH,WindSpeedGustMPH,Humidity,HourlyPrecipIn,Conditions,Clouds,dailyrainin,SolarRadiationWatts/m^2,SoftwareType,DateUTC
2013-02-06 00:01:00,45.0,44.0,-100.00,WNW,284,3.0,11.0,96,0.00,,,0.03,0.000000,,2013-02-06 06:01:00,
2013-02-06 00:32:00,44.0,44.0,-100.00,NW,319,0.0,5.0,100,0.00,,,0.03,0.000000,,2013-02-06 06:32:00,
2013-02-06 00:42:00,44.0,44.0,-100.00,NW,319,0.0,5.0,100,0.00,,,0.03,0.000000,,2013-02-06 06:42:00,
2013-02-06 00:52:00,44.0,44.0,-100.00,NW,319,0.0,5.0,100,0.00,,,0.03,0.000000,,2013-02-06 06:52:00,
2013-02-06 01:02:00,44.0,44.0,-100.00,NW,319,0.0,5.0,100,0.00,,,0.03,0.000000,,2013-02-06 07:02:00,
2013-02-06 01:32:00,40.0,39.0,-100.00,North,350,7.0,10.0,97,0.00,,,0.03,0.000000,,2013-02-06 07:32:00,
2013-02-06 01:42:00,40.0,39.0,-100.00,North,350,7.0,10.0,97,0.00,,,0.03,0.000000,,2013-02-06 07:42:00,
2013-02-06 01:52:00,40.0,39.0,-100.00,North,350,7.0,10.0,97,0.00,,,0.03,0.000000,,2013-02-06 07:52:00,
2013-02-06 02:01:00,40.0,39.0,-100.00,North,350,7.0,10.0,97,0.00,,,0.03,0.000000,,2013-02-06 08:01:00,
2013-02-06 02:32:00,39.0,38.0,-100.00,North,349,8.0,11.0,97,0.00,,,0.03,0.000000,,2013-02-06 08:32:00,
2013-02-06 02:42:00,39.0,38.0,-100.00,North,349,8.0,11.0,97,0.00,,,0.03,0.000000,,2013-02-06 08:42:00,
2013-02-06 02:53:00,39.0,38.0,-100.00,North,349,8.0,11.0,97,0.00,,,0.03,0.000000,,2013-02-06 08:53:00,
2013-02-06 03:02:00,39.0,38.0,-100.00,North,349,8.0,11.0,97,0.00,,,0.03,0.000000,,2013-02-06 09:02:00,
2013-02-06 03:32:00,38.0,35.0,-100.00,North,354,5.0,11.0,90,0.00,,,0.01,0.000000,,2013-02-06 09:32:00,
2013-02-06 03:42:00,38.0,35.0,-100.00,North,354,5.0,11.0,90,0.00,,,0.01,0.000000,,2013-02-06 09:42:00,
2013-02-06 03:52:00,38.0,35.0,-100.00,North,354,5.0,11.0,90,0.00,,,0.01,0.000000,,2013-02-06 09:52:00,
2013-02-06 04:01:00,38.0,35.0,-100.00,North,354,5.0,11.0,90,0.00,,,0.01,0.000000,,2013-02-06 10:01:00,
2013-02-06 04:32:00,39.0,32.0,-100.00,North,351,5.0,11.0,75,0.00,,,0.00,0.000000,,2013-02-06 10:32:00,
2013-02-06 04:42:00,39.0,32.0,-100.00,North,351,5.0,11.0,75,0.00,,,0.00,0.000000,,2013-02-06 10:42:00,
2013-02-06 04:52:00,39.0,32.0,-100.00,North,351,5.0,11.0,75,0.00,,,0.00,0.000000,,2013-02-06 10:52:00,
2013-02-06 05:02:00,39.0,32.0,-100.00,North,351,5.0,11.0,75,0.00,,,0.00,0.000000,,2013-02-06 11:02:00,
2013-02-06 05:33:00,39.0,31.0,-100.00,North,350,6.0,10.0,74,0.00,,,0.00,0.000000,,2013-02-06 11:33:00,
2013-02-06 05:42:00,39.0,31.0,-100.00,North,350,6.0,10.0,74,0.00,,,0.00,0.000000,,2013-02-06 11:42:00,
2013-02-06 05:53:00,39.0,31.0,-100.00,North,350,6.0,10.0,74,0.00,,,0.00,0.000000,,2013-02-06 11:53:00,
2013-02-06 06:02:00,39.0,31.0,-100.00,North,350,6.0,10.0,74,0.00,,,0.00,0.000000,,2013-02-06 12:02:00,
2013-02-06 06:32:00,40.0,30.0,-100.00,North,11,3.0,11.0,68,0.00,,,0.00,0.000000,,2013-02-06 12:32:00,
2013-02-06 06:42:00,40.0,30.0,-100.00,North,11,3.0,11.0,68,0.00,,,0.00,0.000000,,2013-02-06 12:42:00,
2013-02-06 06:52:00,40.0,30.0,-100.00,North,11,3.0,11.0,68,0.00,,,0.00,0.000000,,2013-02-06 12:52:00,
2013-02-06 07:02:00,40.0,30.0,-100.00,North,11,3.0,11.0,68,0.00,,,0.00,0.000000,,2013-02-06 13:02:00,
2013-02-06 07:32:00,41.0,29.0,-100.00,ESE,102,0.0,7.0,63,0.00,,,0.00,7.000000,,2013-02-06 13:32:00,
2013-02-06 07:42:00,41.0,29.0,-100.00,ESE,102,0.0,7.0,63,0.00,,,0.00,7.000000,,2013-02-06 13:42:00,
2013-02-06 07:52:00,41.0,29.0,-100.00,ESE,102,0.0,7.0,63,0.00,,,0.00,7.000000,,2013-02-06 13:52:00,
2013-02-06 08:02:00,41.0,29.0,-100.00,ESE,102,0.0,7.0,63,0.00,,,0.00,7.000000,,2013-02-06 14:02:00,
2013-02-06 08:32:00,48.0,33.0,-100.00,ESE,119,0.0,0.0,55,0.00,,,0.00,128.000000,,2013-02-06 14:32:00,
2013-02-06 08:42:00,48.0,33.0,-100.00,ESE,119,0.0,0.0,55,0.00,,,0.00,128.000000,,2013-02-06 14:42:00,
2013-02-06 08:52:00,48.0,33.0,-100.00,ESE,119,0.0,0.0,55,0.00,,,0.00,128.000000,,2013-02-06 14:52:00,
2013-02-06 09:02:00,48.0,33.0,-100.00,ESE,119,0.0,0.0,55,0.00,,,0.00,128.000000,,2013-02-06 15:02:00,
2013-02-06 09:32:00,50.0,32.0,-100.00,SE,132,0.0,0.0,50,0.00,,,0.00,333.000000,,2013-02-06 15:32:00,
2013-02-06 09:42:00,50.0,32.0,-100.00,SE,132,0.0,0.0,50,0.00,,,0.00,333.000000,,2013-02-06 15:42:00,
2013-02-06 09:52:00,50.0,32.0,-100.00,SE,132,0.0,0.0,50,0.00,,,0.00,333.000000,,2013-02-06 15:52:00,
2013-02-06 10:01:00,50.0,32.0,-100.00,SE,132,0.0,0.0,50,0.00,,,0.00,333.000000,,2013-02-06 16:01:00,
2013-02-06 10:32:00,51.0,33.0,-100.00,SE,131,5.0,10.0,50,0.00,,,0.00,483.000000,,2013-02-06 16:32:00,
2013-02-06 10:42:00,51.0,33.0,-100.00,SE,131,5.0,10.0,50,0.00,,,0.00,483.000000,,2013-02-06 16:42:00,
2013-02-06 10:52:00,51.0,33.0,-100.00,SE,131,5.0,10.0,50,0.00,,,0.00,483.000000,,2013-02-06 16:52:00,
2013-02-06 11:02:00,51.0,33.0,-100.00,SE,131,5.0,10.0,50,0.00,,,0.00,483.000000,,2013-02-06 17:02:00,
2013-02-06 11:32:00,54.0,34.0,-100.00,ESE,120,2.0,9.0,47,0.00,,,0.00,588.000000,,2013-02-06 17:32:00,
2013-02-06 11:42:00,54.0,34.0,-100.00,ESE,120,2.0,9.0,47,0.00,,,0.00,588.000000,,2013-02-06 17:42:00,
2013-02-06 11:52:00,54.0,34.0,-100.00,ESE,120,2.0,9.0,47,0.00,,,0.00,588.000000,,2013-02-06 17:52:00,
2013-02-06 12:02:00,54.0,34.0,-100.00,ESE,120,2.0,9.0,47,0.00,,,0.00,588.000000,,2013-02-06 18:02:00,
2013-02-06 12:33:00,58.0,35.0,-100.00,South,170,1.0,8.0,42,0.00,,,0.00,633.000000,,2013-02-06 18:33:00,
2013-02-06 12:42:00,58.0,35.0,-100.00,South,170,1.0,8.0,42,0.00,,,0.00,633.000000,,2013-02-06 18:42:00,
2013-02-06 12:52:00,58.0,35.0,-100.00,South,170,1.0,8.0,42,0.00,,,0.00,633.000000,,2013-02-06 18:52:00,
2013-02-06 13:02:00,58.0,35.0,-100.00,South,170,1.0,8.0,42,0.00,,,0.00,633.000000,,2013-02-06 19:02:00,
2013-02-06 13:32:00,60.0,31.0,-100.00,West,269,7.0,11.0,33,0.00,,,0.00,621.000000,,2013-02-06 19:32:00,
2013-02-06 13:42:00,60.0,31.0,-100.00,West,269,7.0,11.0,33,0.00,,,0.00,621.000000,,2013-02-06 19:42:00,
2013-02-06 13:52:00,60.0,31.0,-100.00,West,269,7.0,11.0,33,0.00,,,0.00,621.000000,,2013-02-06 19:52:00,
2013-02-06 14:01:00,60.0,31.0,-100.00,West,269,7.0,11.0,33,0.00,,,0.00,621.000000,,2013-02-06 20:01:00,
2013-02-06 14:32:00,61.0,29.0,-100.00,NW,325,4.0,11.0,29,0.00,,,0.00,547.000000,,2013-02-06 20:32:00,
2013-02-06 14:42:00,61.0,29.0,-100.00,NW,325,4.0,11.0,29,0.00,,,0.00,547.000000,,2013-02-06 20:42:00,
2013-02-06 14:52:00,61.0,29.0,-100.00,NW,325,4.0,11.0,29,0.00,,,0.00,547.000000,,2013-02-06 20:52:00,
2013-02-06 15:02:00,61.0,29.0,-100.00,NW,325,4.0,11.0,29,0.00,,,0.00,547.000000,,2013-02-06 21:02:00,
2013-02-06 15:32:00,60.0,26.0,-100.00,NW,314,4.0,12.0,27,0.00,,,0.00,390.000000,,2013-02-06 21:32:00,
2013-02-06 16:32:00,58.0,27.0,-100.00,ESE,119,5.0,9.0,30,0.00,,,0.00,211.000000,,2013-02-06 22:32:00,
2013-02-06 16:42:00,58.0,27.0,-100.00,ESE,119,5.0,9.0,30,0.00,,,0.00,211.000000,,2013-02-06 22:42:00,
2013-02-06 16:52:00,58.0,27.0,-100.00,ESE,119,5.0,9.0,30,0.00,,,0.00,211.000000,,2013-02-06 22:52:00,
2013-02-06 17:01:00,58.0,27.0,-100.00,ESE,119,5.0,9.0,30,0.00,,,0.00,211.000000,,2013-02-06 23:01:00,
2013-02-06 17:32:00,55.0,31.0,-100.00,SE,133,5.0,9.0,39,0.00,,,0.00,34.000000,,2013-02-06 23:32:00,
2013-02-06 17:42:00,55.0,31.0,-100.00,SE,133,5.0,9.0,39,0.00,,,0.00,34.000000,,2013-02-06 23:42:00,
2013-02-06 17:52:00,55.0,31.0,-100.00,SE,133,5.0,9.0,39,0.00,,,0.00,34.000000,,2013-02-06 23:52:00,
2013-02-06 18:02:00,55.0,31.0,-100.00,SE,133,5.0,9.0,39,0.00,,,0.00,34.000000,,2013-02-07 00:02:00,
2013-02-06 18:32:00,53.0,31.0,-100.00,East,95,5.0,6.0,43,0.00,,,0.00,1.000000,,2013-02-07 00:32:00,
2013-02-06 18:42:00,53.0,31.0,-100.00,East,95,5.0,6.0,43,0.00,,,0.00,1.000000,,2013-02-07 00:42:00,
2013-02-06 18:52:00,53.0,31.0,-100.00,East,95,5.0,6.0,43,0.00,,,0.00,1.000000,,2013-02-07 00:52:00,
2013-02-06 19:01:00,53.0,31.0,-100.00,East,95,5.0,6.0,43,0.00,,,0.00,1.000000,,2013-02-07 01:01:00,
2013-02-06 19:32:00,51.0,29.0,-100.00,ENE,57,3.0,7.0,43,0.00,,,0.00,0.000000,,2013-02-07 01:32:00,
2013-02-06 19:42:00,51.0,29.0,-100.00,ENE,57,3.0,7.0,43,0.00,,,0.00,0.000000,,2013-02-07 01:42:00,
2013-02-06 19:52:00,51.0,29.0,-100.00,ENE,57,3.0,7.0,43,0.00,,,0.00,0.000000,,2013-02-07 01:52:00,
2013-02-06 20:02:00,51.0,29.0,-100.00,ENE,57,3.0,7.0,43,0.00,,,0.00,0.000000,,2013-02-07 02:02:00,
2013-02-06 20:32:00,52.0,30.0,-100.00,East,95,5.0,7.0,42,0.00,,,0.00,0.000000,,2013-02-07 02:32:00,
2013-02-06 20:42:00,52.0,30.0,-100.00,East,95,5.0,7.0,42,0.00,,,0.00,0.000000,,2013-02-07 02:42:00,
2013-02-06 20:52:00,52.0,30.0,-100.00,East,95,5.0,7.0,42,0.00,,,0.00,0.000000,,2013-02-07 02:52:00,
2013-02-06 21:02:00,52.0,30.0,-100.00,East,95,5.0,7.0,42,0.00,,,0.00,0.000000,,2013-02-07 03:02:00,
2013-02-06 21:32:00,51.0,27.0,-100.00,ESE,115,5.0,8.0,39,0.00,,,0.00,0.000000,,2013-02-07 03:32:00,
2013-02-06 21:42:00,51.0,27.0,-100.00,ESE,115,5.0,8.0,39,0.00,,,0.00,0.000000,,2013-02-07 03:42:00,
2013-02-06 21:52:00,51.0,27.0,-100.00,ESE,115,5.0,8.0,39,0.00,,,0.00,0.000000,,2013-02-07 03:52:00,
2013-02-06 22:01:00,51.0,27.0,-100.00,ESE,115,5.0,8.0,39,0.00,,,0.00,0.000000,,2013-02-07 04:01:00,
2013-02-06 22:32:00,51.0,28.0,-100.00,ESE,110,1.0,7.0,41,0.00,,,0.00,0.000000,,2013-02-07 04:32:00,
2013-02-06 22:42:00,51.0,28.0,-100.00,ESE,110,1.0,7.0,41,0.00,,,0.00,0.000000,,2013-02-07 04:42:00,
2013-02-06 22:53:00,51.0,28.0,-100.00,ESE,110,1.0,7.0,41,0.00,,,0.00,0.000000,,2013-02-07 04:53:00,
2013-02-06 23:02:00,51.0,28.0,-100.00,ESE,110,1.0,7.0,41,0.00,,,0.00,0.000000,,2013-02-07 05:02:00,
2013-02-06 23:32:00,51.0,28.0,-100.00,ESE,113,2.0,9.0,40,0.00,,,0.00,0.000000,,2013-02-07 05:32:00,
2013-02-06 23:43:00,51.0,28.0,-100.00,ESE,113,2.0,9.0,40,0.00,,,0.00,0.000000,,2013-02-07 05:43:00,
2013-02-06 23:52:00,51.0,28.0,-100.00,ESE,113,2.0,9.0,40,0.00,,,0.00,0.000000,,2013-02-07 05:52:00,